Argyle Airport

Airport
ICAO code: 
YARG
IATA Code: 
GYL
Summary
ICAO Region: 
APAC
Territory: 
Location: 
Argyle, Western Australia
Serving: 
Argyle
Elevation: 
522 ft
Coordinates: 
Aerial View: 
16° 38' 12.84" S, 128° 27' 3.6" E
Metar
Observation
YARG 210500Z AUTO 02004KT 310V090 9999 // NCD 33/22 Q1006
Station
Argyle Airport
Date/Time
2022-01-21 05:00:00
Wind direction
20°
Wind speed
04 kts
Lowest cloud amount
no clouds detected
Temperature
33°C
Dew point
22°C
Humidity
52%
QNH
1006 hPa
Weather condition
n/a

Runways

Designator Length Width Surface Rops
1/19 2300 30 ASP No/No
Airport map: 
Aerial View: 

SKYbrary Partners:

Safety knowledge contributed by: